KWWD/WWD METAR and TAF weather

Enter ICAO airport designator
Station Type Date Time Source
KWWD METAR 2019/06/26 04:56 UTC NOAA

KWWD 260456Z AUTO 27003KT 10SM CLR 24/21 A2994 RMK AO2 SLP140 T02390211 402890222


Station Type Date Time Source
KWWD Decoded METAR 2019/06/26 04:56 UTC NOAA

Wildwood, Cape May County Airport, NJ, United States (KWWD) 39-01N 074-55W
Jun 26, 2019 - 12:56 AM EDT / 2019.06.26 0456 UTC
Wind: from the W (270 degrees) at 3 MPH (3 KT):0
Visibility: 10 mile(s):0
Sky conditions: clear
Temperature: 75.0 F (23.9 C)
Dew Point: 70.0 F (21.1 C)
Relative Humidity: 84%
Pressure (altimeter): 29.94 in. Hg (1013 hPa)
ob: KWWD 260456Z AUTO 27003KT 10SM CLR 24/21 A2994 RMK AO2 SLP140 T02390211 402890222
cycle: 5

Station Type Date Time Source
KWWD TAF UTC NOAA

Error!

Example: see airport list